sensor_id;sensor_type;location;lat;lon;timestamp;P1;durP1;ratioP1;P2;durP2;ratioP2
10565;SDS011;5331;48.148;16.326;2024-02-21T00:10:01;6.43;;;2.80;;
10565;SDS011;5331;48.148;16.326;2024-02-21T00:12:28;5.78;;;2.53;;
10565;SDS011;5331;48.148;16.326;2024-02-21T00:14:54;5.03;;;2.83;;
10565;SDS011;5331;48.148;16.326;2024-02-21T00:17:20;4.45;;;2.60;;
10565;SDS011;5331;48.148;16.326;2024-02-21T00:19:46;4.10;;;2.80;;
10565;SDS011;5331;48.148;16.326;2024-02-21T00:22:13;5.82;;;3.00;;
10565;SDS011;5331;48.148;16.326;2024-02-21T00:24:39;8.90;;;2.88;;
10565;SDS011;5331;48.148;16.326;2024-02-21T00:40:08;8.27;;;2.75;;
10565;SDS011;5331;48.148;16.326;2024-02-21T00:42:35;7.22;;;2.78;;
10565;SDS011;5331;48.148;16.326;2024-02-21T00:45:01;6.95;;;2.95;;
10565;SDS011;5331;48.148;16.326;2024-02-21T00:47:28;4.72;;;2.70;;
10565;SDS011;5331;48.148;16.326;2024-02-21T00:49:54;5.85;;;2.80;;
10565;SDS011;5331;48.148;16.326;2024-02-21T00:52:20;4.55;;;2.33;;
10565;SDS011;5331;48.148;16.326;2024-02-21T00:54:47;3.63;;;2.60;;
10565;SDS011;5331;48.148;16.326;2024-02-21T01:14:59;5.80;;;2.90;;
10565;SDS011;5331;48.148;16.326;2024-02-21T01:17:25;6.38;;;2.75;;
10565;SDS011;5331;48.148;16.326;2024-02-21T01:19:51;5.10;;;2.90;;
10565;SDS011;5331;48.148;16.326;2024-02-21T01:22:17;5.53;;;2.88;;
10565;SDS011;5331;48.148;16.326;2024-02-21T01:24:44;8.00;;;3.30;;
10565;SDS011;5331;48.148;16.326;2024-02-21T01:27:10;5.63;;;2.90;;
10565;SDS011;5331;48.148;16.326;2024-02-21T01:29:36;5.68;;;2.90;;
10565;SDS011;5331;48.148;16.326;2024-02-21T01:32:04;6.88;;;3.20;;
10565;SDS011;5331;48.148;16.326;2024-02-21T01:49:57;5.70;;;3.00;;
10565;SDS011;5331;48.148;16.326;2024-02-21T01:52:24;4.85;;;2.80;;
10565;SDS011;5331;48.148;16.326;2024-02-21T01:54:50;7.78;;;3.20;;
10565;SDS011;5331;48.148;16.326;2024-02-21T01:57:16;4.82;;;2.97;;
10565;SDS011;5331;48.148;16.326;2024-02-21T01:59:42;6.35;;;2.80;;
10565;SDS011;5331;48.148;16.326;2024-02-21T02:02:09;7.65;;;3.00;;
10565;SDS011;5331;48.148;16.326;2024-02-21T02:04:35;5.65;;;2.70;;
10565;SDS011;5331;48.148;16.326;2024-02-21T02:20:08;6.07;;;2.78;;
10565;SDS011;5331;48.148;16.326;2024-02-21T02:22:35;6.60;;;2.72;;
10565;SDS011;5331;48.148;16.326;2024-02-21T02:25:05;6.35;;;2.72;;
10565;SDS011;5331;48.148;16.326;2024-02-21T02:27:32;5.80;;;2.40;;
10565;SDS011;5331;48.148;16.326;2024-02-21T02:29:58;5.50;;;2.75;;
10565;SDS011;5331;48.148;16.326;2024-02-21T02:32:24;6.00;;;2.97;;
10565;SDS011;5331;48.148;16.326;2024-02-21T02:34:50;3.27;;;2.40;;
10565;SDS011;5331;48.148;16.326;2024-02-21T02:55:08;6.72;;;2.70;;
10565;SDS011;5331;48.148;16.326;2024-02-21T02:57:35;5.45;;;2.40;;
10565;SDS011;5331;48.148;16.326;2024-02-21T03:00:01;5.20;;;2.55;;
10565;SDS011;5331;48.148;16.326;2024-02-21T03:02:28;5.15;;;2.50;;
10565;SDS011;5331;48.148;16.326;2024-02-21T03:04:55;10.47;;;4.63;;
10565;SDS011;5331;48.148;16.326;2024-02-21T03:07:21;5.47;;;2.78;;
10565;SDS011;5331;48.148;16.326;2024-02-21T03:09:47;6.15;;;2.60;;
10565;SDS011;5331;48.148;16.326;2024-02-21T03:30:50;3.90;;;2.88;;
10565;SDS011;5331;48.148;16.326;2024-02-21T03:33:16;7.38;;;2.90;;
10565;SDS011;5331;48.148;16.326;2024-02-21T03:35:42;4.25;;;2.65;;
10565;SDS011;5331;48.148;16.326;2024-02-21T03:38:08;4.88;;;2.70;;
10565;SDS011;5331;48.148;16.326;2024-02-21T03:40:35;5.00;;;2.70;;
10565;SDS011;5331;48.148;16.326;2024-02-21T03:43:01;4.53;;;2.55;;
10565;SDS011;5331;48.148;16.326;2024-02-21T03:45:27;9.35;;;2.80;;
10565;SDS011;5331;48.148;16.326;2024-02-21T04:01:06;6.18;;;2.55;;
10565;SDS011;5331;48.148;16.326;2024-02-21T04:03:32;3.83;;;2.40;;
10565;SDS011;5331;48.148;16.326;2024-02-21T04:05:58;3.95;;;2.53;;
10565;SDS011;5331;48.148;16.326;2024-02-21T04:08:25;3.65;;;2.35;;
10565;SDS011;5331;48.148;16.326;2024-02-21T04:10:51;6.65;;;2.65;;
10565;SDS011;5331;48.148;16.326;2024-02-21T04:13:18;3.22;;;2.25;;
10565;SDS011;5331;48.148;16.326;2024-02-21T04:15:44;4.28;;;2.42;;
10565;SDS011;5331;48.148;16.326;2024-02-21T04:18:11;3.10;;;2.25;;
10565;SDS011;5331;48.148;16.326;2024-02-21T04:33:51;6.30;;;2.60;;
10565;SDS011;5331;48.148;16.326;2024-02-21T04:36:18;4.80;;;2.40;;
10565;SDS011;5331;48.148;16.326;2024-02-21T04:38:44;4.40;;;2.25;;
10565;SDS011;5331;48.148;16.326;2024-02-21T04:41:10;4.63;;;2.58;;
10565;SDS011;5331;48.148;16.326;2024-02-21T04:43:37;6.40;;;2.80;;
10565;SDS011;5331;48.148;16.326;2024-02-21T04:46:04;5.75;;;2.60;;
10565;SDS011;5331;48.148;16.326;2024-02-21T04:48:30;5.28;;;2.20;;
10565;SDS011;5331;48.148;16.326;2024-02-21T05:04:55;4.20;;;2.53;;
10565;SDS011;5331;48.148;16.326;2024-02-21T05:07:21;3.38;;;2.30;;
10565;SDS011;5331;48.148;16.326;2024-02-21T05:09:47;4.65;;;2.30;;
10565;SDS011;5331;48.148;16.326;2024-02-21T05:12:14;2.67;;;2.25;;
10565;SDS011;5331;48.148;16.326;2024-02-21T05:14:40;6.32;;;2.28;;
10565;SDS011;5331;48.148;16.326;2024-02-21T05:17:06;4.07;;;2.50;;
10565;SDS011;5331;48.148;16.326;2024-02-21T05:19:32;5.27;;;2.60;;
10565;SDS011;5331;48.148;16.326;2024-02-21T05:35:01;5.88;;;2.53;;
10565;SDS011;5331;48.148;16.326;2024-02-21T05:37:27;4.03;;;2.55;;
10565;SDS011;5331;48.148;16.326;2024-02-21T05:39:53;3.38;;;2.17;;
10565;SDS011;5331;48.148;16.326;2024-02-21T05:42:19;4.30;;;2.70;;
10565;SDS011;5331;48.148;16.326;2024-02-21T05:44:45;5.03;;;2.30;;
10565;SDS011;5331;48.148;16.326;2024-02-21T05:47:11;4.20;;;2.30;;
10565;SDS011;5331;48.148;16.326;2024-02-21T05:49:40;3.30;;;2.20;;
10565;SDS011;5331;48.148;16.326;2024-02-21T06:05:29;4.95;;;2.47;;
10565;SDS011;5331;48.148;16.326;2024-02-21T06:07:56;2.75;;;1.90;;
10565;SDS011;5331;48.148;16.326;2024-02-21T06:10:23;3.33;;;1.90;;
10565;SDS011;5331;48.148;16.326;2024-02-21T06:12:49;3.80;;;2.10;;
10565;SDS011;5331;48.148;16.326;2024-02-21T06:15:15;6.35;;;2.30;;
10565;SDS011;5331;48.148;16.326;2024-02-21T06:17:41;3.73;;;2.27;;
10565;SDS011;5331;48.148;16.326;2024-02-21T06:20:08;2.87;;;1.90;;
10565;SDS011;5331;48.148;16.326;2024-02-21T06:35:49;3.00;;;2.05;;
10565;SDS011;5331;48.148;16.326;2024-02-21T06:38:18;2.20;;;2.03;;
10565;SDS011;5331;48.148;16.326;2024-02-21T06:40:44;3.72;;;2.15;;
10565;SDS011;5331;48.148;16.326;2024-02-21T06:43:16;3.53;;;1.98;;
10565;SDS011;5331;48.148;16.326;2024-02-21T06:45:43;3.88;;;1.92;;
10565;SDS011;5331;48.148;16.326;2024-02-21T06:48:12;4.05;;;2.08;;
10565;SDS011;5331;48.148;16.326;2024-02-21T06:50:38;5.13;;;2.50;;
10565;SDS011;5331;48.148;16.326;2024-02-21T07:08:32;3.90;;;2.05;;
10565;SDS011;5331;48.148;16.326;2024-02-21T07:10:58;5.07;;;2.28;;
10565;SDS011;5331;48.148;16.326;2024-02-21T07:13:24;2.92;;;1.88;;
10565;SDS011;5331;48.148;16.326;2024-02-21T07:15:50;3.85;;;1.90;;
10565;SDS011;5331;48.148;16.326;2024-02-21T07:18:16;4.32;;;2.17;;
10565;SDS011;5331;48.148;16.326;2024-02-21T07:20:43;5.35;;;1.80;;
10565;SDS011;5331;48.148;16.326;2024-02-21T07:23:09;4.43;;;2.08;;
10565;SDS011;5331;48.148;16.326;2024-02-21T07:38:49;3.72;;;2.00;;
10565;SDS011;5331;48.148;16.326;2024-02-21T07:41:15;3.97;;;1.88;;
10565;SDS011;5331;48.148;16.326;2024-02-21T07:43:41;4.05;;;2.10;;
10565;SDS011;5331;48.148;16.326;2024-02-21T07:46:07;3.25;;;2.00;;
10565;SDS011;5331;48.148;16.326;2024-02-21T07:48:34;3.30;;;2.10;;
10565;SDS011;5331;48.148;16.326;2024-02-21T07:51:00;3.67;;;2.03;;
10565;SDS011;5331;48.148;16.326;2024-02-21T07:53:26;2.80;;;1.75;;
10565;SDS011;5331;48.148;16.326;2024-02-21T08:08:53;3.70;;;1.80;;
10565;SDS011;5331;48.148;16.326;2024-02-21T08:11:19;2.80;;;1.75;;
10565;SDS011;5331;48.148;16.326;2024-02-21T08:13:45;4.03;;;1.80;;
10565;SDS011;5331;48.148;16.326;2024-02-21T08:16:11;5.07;;;1.77;;
10565;SDS011;5331;48.148;16.326;2024-02-21T08:18:37;3.60;;;2.00;;
10565;SDS011;5331;48.148;16.326;2024-02-21T08:21:04;2.35;;;1.55;;
10565;SDS011;5331;48.148;16.326;2024-02-21T08:23:30;4.28;;;1.90;;
10565;SDS011;5331;48.148;16.326;2024-02-21T08:39:47;2.85;;;1.73;;
10565;SDS011;5331;48.148;16.326;2024-02-21T08:42:13;2.70;;;1.50;;
10565;SDS011;5331;48.148;16.326;2024-02-21T08:44:40;3.95;;;1.80;;
10565;SDS011;5331;48.148;16.326;2024-02-21T08:47:07;3.08;;;1.70;;
10565;SDS011;5331;48.148;16.326;2024-02-21T08:49:35;2.55;;;2.00;;
10565;SDS011;5331;48.148;16.326;2024-02-21T08:52:02;2.60;;;1.73;;
10565;SDS011;5331;48.148;16.326;2024-02-21T08:54:28;2.83;;;1.50;;
10565;SDS011;5331;48.148;16.326;2024-02-21T09:09:56;2.72;;;1.70;;
10565;SDS011;5331;48.148;16.326;2024-02-21T09:12:22;5.72;;;1.85;;
10565;SDS011;5331;48.148;16.326;2024-02-21T09:14:48;2.90;;;1.55;;
10565;SDS011;5331;48.148;16.326;2024-02-21T09:17:15;3.40;;;1.80;;
10565;SDS011;5331;48.148;16.326;2024-02-21T09:19:42;2.92;;;1.55;;
10565;SDS011;5331;48.148;16.326;2024-02-21T09:22:09;3.05;;;1.98;;
10565;SDS011;5331;48.148;16.326;2024-02-21T09:24:35;3.42;;;1.80;;
10565;SDS011;5331;48.148;16.326;2024-02-21T09:27:02;3.17;;;1.63;;
10565;SDS011;5331;48.148;16.326;2024-02-21T09:44:54;2.60;;;1.88;;
10565;SDS011;5331;48.148;16.326;2024-02-21T09:47:22;3.78;;;1.77;;
10565;SDS011;5331;48.148;16.326;2024-02-21T09:49:56;4.18;;;1.67;;
10565;SDS011;5331;48.148;16.326;2024-02-21T09:52:23;3.65;;;1.55;;
10565;SDS011;5331;48.148;16.326;2024-02-21T09:54:52;3.38;;;1.60;;
10565;SDS011;5331;48.148;16.326;2024-02-21T09:57:19;2.00;;;1.55;;
10565;SDS011;5331;48.148;16.326;2024-02-21T09:59:48;2.42;;;1.58;;
10565;SDS011;5331;48.148;16.326;2024-02-21T10:20:07;3.92;;;1.80;;
10565;SDS011;5331;48.148;16.326;2024-02-21T10:22:34;4.13;;;1.90;;
10565;SDS011;5331;48.148;16.326;2024-02-21T10:25:06;4.10;;;1.80;;
10565;SDS011;5331;48.148;16.326;2024-02-21T10:27:32;3.70;;;1.88;;
10565;SDS011;5331;48.148;16.326;2024-02-21T10:29:59;3.80;;;1.75;;
10565;SDS011;5331;48.148;16.326;2024-02-21T10:32:25;2.70;;;1.60;;
10565;SDS011;5331;48.148;16.326;2024-02-21T10:35:00;3.33;;;1.80;;
10565;SDS011;5331;48.148;16.326;2024-02-21T10:52:55;3.05;;;1.75;;
10565;SDS011;5331;48.148;16.326;2024-02-21T10:55:36;4.45;;;1.75;;
10565;SDS011;5331;48.148;16.326;2024-02-21T10:58:06;2.55;;;1.58;;
10565;SDS011;5331;48.148;16.326;2024-02-21T11:00:34;5.63;;;1.83;;
10565;SDS011;5331;48.148;16.326;2024-02-21T11:03:02;3.60;;;1.90;;
10565;SDS011;5331;48.148;16.326;2024-02-21T11:05:29;4.85;;;1.80;;
10565;SDS011;5331;48.148;16.326;2024-02-21T11:07:58;2.55;;;1.85;;
10565;SDS011;5331;48.148;16.326;2024-02-21T11:31:05;4.00;;;2.00;;
10565;SDS011;5331;48.148;16.326;2024-02-21T11:33:32;1.98;;;1.45;;
10565;SDS011;5331;48.148;16.326;2024-02-21T11:35:59;2.70;;;1.80;;
10565;SDS011;5331;48.148;16.326;2024-02-21T11:38:25;6.38;;;1.80;;
10565;SDS011;5331;48.148;16.326;2024-02-21T11:40:51;2.83;;;1.88;;
10565;SDS011;5331;48.148;16.326;2024-02-21T11:43:18;2.78;;;1.80;;
10565;SDS011;5331;48.148;16.326;2024-02-21T11:45:45;3.50;;;1.77;;
10565;SDS011;5331;48.148;16.326;2024-02-21T12:03:38;2.63;;;1.60;;
10565;SDS011;5331;48.148;16.326;2024-02-21T12:06:06;2.83;;;1.90;;
10565;SDS011;5331;48.148;16.326;2024-02-21T12:08:40;3.35;;;1.60;;
10565;SDS011;5331;48.148;16.326;2024-02-21T12:11:15;3.72;;;1.40;;
10565;SDS011;5331;48.148;16.326;2024-02-21T12:13:43;3.15;;;1.80;;
10565;SDS011;5331;48.148;16.326;2024-02-21T12:16:09;3.50;;;1.55;;
10565;SDS011;5331;48.148;16.326;2024-02-21T12:18:35;2.95;;;1.60;;
10565;SDS011;5331;48.148;16.326;2024-02-21T12:34:13;3.85;;;1.67;;
10565;SDS011;5331;48.148;16.326;2024-02-21T12:36:41;2.40;;;1.77;;
10565;SDS011;5331;48.148;16.326;2024-02-21T12:39:08;2.90;;;1.70;;
10565;SDS011;5331;48.148;16.326;2024-02-21T12:41:34;2.50;;;1.45;;
10565;SDS011;5331;48.148;16.326;2024-02-21T12:44:03;5.15;;;1.95;;
10565;SDS011;5331;48.148;16.326;2024-02-21T12:46:29;2.15;;;1.80;;
10565;SDS011;5331;48.148;16.326;2024-02-21T12:48:57;5.43;;;1.70;;
10565;SDS011;5331;48.148;16.326;2024-02-21T13:09:33;2.17;;;1.70;;
10565;SDS011;5331;48.148;16.326;2024-02-21T13:11:59;4.25;;;1.50;;
10565;SDS011;5331;48.148;16.326;2024-02-21T13:14:27;3.60;;;1.58;;
10565;SDS011;5331;48.148;16.326;2024-02-21T13:16:53;1.77;;;1.67;;
10565;SDS011;5331;48.148;16.326;2024-02-21T13:19:19;2.78;;;1.90;;
10565;SDS011;5331;48.148;16.326;2024-02-21T13:21:46;4.20;;;1.75;;
10565;SDS011;5331;48.148;16.326;2024-02-21T13:24:13;2.67;;;1.60;;
10565;SDS011;5331;48.148;16.326;2024-02-21T13:26:40;4.25;;;1.58;;
10565;SDS011;5331;48.148;16.326;2024-02-21T13:44:28;2.60;;;1.60;;
10565;SDS011;5331;48.148;16.326;2024-02-21T13:46:54;2.65;;;1.40;;
10565;SDS011;5331;48.148;16.326;2024-02-21T13:49:20;2.90;;;1.55;;
10565;SDS011;5331;48.148;16.326;2024-02-21T13:51:47;2.88;;;1.65;;
10565;SDS011;5331;48.148;16.326;2024-02-21T13:54:13;2.72;;;1.63;;
10565;SDS011;5331;48.148;16.326;2024-02-21T13:56:53;2.33;;;1.60;;
10565;SDS011;5331;48.148;16.326;2024-02-21T13:59:19;2.38;;;1.48;;
10565;SDS011;5331;48.148;16.326;2024-02-21T14:15:10;2.22;;;1.50;;
10565;SDS011;5331;48.148;16.326;2024-02-21T14:17:37;1.80;;;1.50;;
10565;SDS011;5331;48.148;16.326;2024-02-21T14:20:04;4.25;;;1.75;;
10565;SDS011;5331;48.148;16.326;2024-02-21T14:22:32;2.15;;;1.40;;
10565;SDS011;5331;48.148;16.326;2024-02-21T14:24:59;3.45;;;1.70;;
10565;SDS011;5331;48.148;16.326;2024-02-21T14:27:25;2.97;;;1.70;;
10565;SDS011;5331;48.148;16.326;2024-02-21T14:29:55;6.10;;;2.78;;
10565;SDS011;5331;48.148;16.326;2024-02-21T14:56:12;5.15;;;2.10;;
10565;SDS011;5331;48.148;16.326;2024-02-21T14:58:40;4.22;;;2.05;;
10565;SDS011;5331;48.148;16.326;2024-02-21T15:01:07;5.95;;;2.08;;
10565;SDS011;5331;48.148;16.326;2024-02-21T15:03:39;1.90;;;1.77;;
10565;SDS011;5331;48.148;16.326;2024-02-21T15:06:06;2.92;;;1.60;;
10565;SDS011;5331;48.148;16.326;2024-02-21T15:08:37;2.38;;;1.50;;
10565;SDS011;5331;48.148;16.326;2024-02-21T15:11:03;2.72;;;1.75;;
10565;SDS011;5331;48.148;16.326;2024-02-21T15:31:32;4.57;;;2.40;;
10565;SDS011;5331;48.148;16.326;2024-02-21T15:33:58;3.33;;;1.90;;
10565;SDS011;5331;48.148;16.326;2024-02-21T15:36:25;2.90;;;2.20;;
10565;SDS011;5331;48.148;16.326;2024-02-21T15:38:53;4.18;;;2.60;;
10565;SDS011;5331;48.148;16.326;2024-02-21T15:41:22;5.50;;;3.05;;
10565;SDS011;5331;48.148;16.326;2024-02-21T15:43:49;4.35;;;2.50;;
10565;SDS011;5331;48.148;16.326;2024-02-21T15:46:16;7.13;;;3.20;;
10565;SDS011;5331;48.148;16.326;2024-02-21T16:04:10;2.35;;;2.10;;
10565;SDS011;5331;48.148;16.326;2024-02-21T16:06:37;6.15;;;3.65;;
10565;SDS011;5331;48.148;16.326;2024-02-21T16:09:04;4.82;;;3.17;;
10565;SDS011;5331;48.148;16.326;2024-02-21T16:11:32;7.22;;;4.10;;
10565;SDS011;5331;48.148;16.326;2024-02-21T16:13:59;4.38;;;3.15;;
10565;SDS011;5331;48.148;16.326;2024-02-21T16:16:32;7.68;;;3.30;;
10565;SDS011;5331;48.148;16.326;2024-02-21T16:19:06;5.63;;;3.40;;
10565;SDS011;5331;48.148;16.326;2024-02-21T16:37:06;3.88;;;2.72;;
10565;SDS011;5331;48.148;16.326;2024-02-21T16:39:33;4.18;;;2.20;;
10565;SDS011;5331;48.148;16.326;2024-02-21T16:42:00;3.83;;;2.83;;
10565;SDS011;5331;48.148;16.326;2024-02-21T16:44:30;5.35;;;2.70;;
10565;SDS011;5331;48.148;16.326;2024-02-21T16:46:56;5.47;;;3.42;;
10565;SDS011;5331;48.148;16.326;2024-02-21T16:49:23;9.25;;;5.35;;
10565;SDS011;5331;48.148;16.326;2024-02-21T16:51:51;10.77;;;6.28;;
10565;SDS011;5331;48.148;16.326;2024-02-21T17:08:43;10.55;;;8.05;;
10565;SDS011;5331;48.148;16.326;2024-02-21T17:11:09;11.68;;;8.00;;
10565;SDS011;5331;48.148;16.326;2024-02-21T17:13:36;12.00;;;9.10;;
10565;SDS011;5331;48.148;16.326;2024-02-21T17:16:04;13.35;;;9.38;;
10565;SDS011;5331;48.148;16.326;2024-02-21T17:18:31;13.52;;;9.10;;
10565;SDS011;5331;48.148;16.326;2024-02-21T17:20:57;13.10;;;9.52;;
10565;SDS011;5331;48.148;16.326;2024-02-21T17:36:33;13.68;;;8.02;;
10565;SDS011;5331;48.148;16.326;2024-02-21T17:39:00;11.52;;;7.47;;
10565;SDS011;5331;48.148;16.326;2024-02-21T17:41:27;12.38;;;7.95;;
10565;SDS011;5331;48.148;16.326;2024-02-21T17:43:54;12.77;;;7.60;;
10565;SDS011;5331;48.148;16.326;2024-02-21T17:46:20;12.10;;;7.32;;
10565;SDS011;5331;48.148;16.326;2024-02-21T17:48:46;9.80;;;7.38;;
10565;SDS011;5331;48.148;16.326;2024-02-21T17:51:13;11.52;;;7.38;;
10565;SDS011;5331;48.148;16.326;2024-02-21T18:08:18;11.93;;;7.20;;
10565;SDS011;5331;48.148;16.326;2024-02-21T18:10:45;9.45;;;6.63;;
10565;SDS011;5331;48.148;16.326;2024-02-21T18:13:12;11.50;;;6.88;;
10565;SDS011;5331;48.148;16.326;2024-02-21T18:15:39;9.27;;;6.72;;
10565;SDS011;5331;48.148;16.326;2024-02-21T18:18:05;9.98;;;6.65;;
10565;SDS011;5331;48.148;16.326;2024-02-21T18:20:31;9.95;;;6.93;;
10565;SDS011;5331;48.148;16.326;2024-02-21T18:22:58;9.30;;;6.55;;
10565;SDS011;5331;48.148;16.326;2024-02-21T18:40:23;8.75;;;6.28;;
10565;SDS011;5331;48.148;16.326;2024-02-21T18:42:49;11.05;;;6.28;;
10565;SDS011;5331;48.148;16.326;2024-02-21T18:45:16;8.68;;;6.28;;
10565;SDS011;5331;48.148;16.326;2024-02-21T18:47:42;10.15;;;6.93;;
10565;SDS011;5331;48.148;16.326;2024-02-21T18:50:09;10.75;;;7.22;;
10565;SDS011;5331;48.148;16.326;2024-02-21T18:52:36;11.15;;;6.90;;
10565;SDS011;5331;48.148;16.326;2024-02-21T18:55:03;12.45;;;7.10;;
10565;SDS011;5331;48.148;16.326;2024-02-21T18:57:31;10.23;;;7.78;;
10565;SDS011;5331;48.148;16.326;2024-02-21T19:15:25;13.55;;;7.50;;
10565;SDS011;5331;48.148;16.326;2024-02-21T19:17:55;9.23;;;6.85;;
10565;SDS011;5331;48.148;16.326;2024-02-21T19:20:22;10.02;;;6.97;;
10565;SDS011;5331;48.148;16.326;2024-02-21T19:22:49;9.23;;;7.27;;
10565;SDS011;5331;48.148;16.326;2024-02-21T19:25:15;12.47;;;7.87;;
10565;SDS011;5331;48.148;16.326;2024-02-21T19:27:45;13.97;;;7.83;;
10565;SDS011;5331;48.148;16.326;2024-02-21T19:30:13;13.73;;;8.30;;
10565;SDS011;5331;48.148;16.326;2024-02-21T19:32:40;11.93;;;7.83;;
10565;SDS011;5331;48.148;16.326;2024-02-21T19:50:50;11.20;;;7.55;;
10565;SDS011;5331;48.148;16.326;2024-02-21T19:53:18;12.77;;;8.17;;
10565;SDS011;5331;48.148;16.326;2024-02-21T19:55:44;12.00;;;8.37;;
10565;SDS011;5331;48.148;16.326;2024-02-21T19:58:11;12.43;;;8.90;;
10565;SDS011;5331;48.148;16.326;2024-02-21T20:00:39;11.77;;;8.20;;
10565;SDS011;5331;48.148;16.326;2024-02-21T20:03:06;10.47;;;8.33;;
10565;SDS011;5331;48.148;16.326;2024-02-21T20:05:32;12.93;;;9.03;;
10565;SDS011;5331;48.148;16.326;2024-02-21T20:23:29;15.97;;;9.13;;
10565;SDS011;5331;48.148;16.326;2024-02-21T20:26:03;13.83;;;8.87;;
10565;SDS011;5331;48.148;16.326;2024-02-21T20:28:31;13.67;;;9.07;;
10565;SDS011;5331;48.148;16.326;2024-02-21T20:30:57;17.43;;;10.73;;
10565;SDS011;5331;48.148;16.326;2024-02-21T20:33:23;16.40;;;10.57;;
10565;SDS011;5331;48.148;16.326;2024-02-21T20:35:49;15.40;;;10.13;;
10565;SDS011;5331;48.148;16.326;2024-02-21T20:38:17;17.80;;;10.80;;
10565;SDS011;5331;48.148;16.326;2024-02-21T20:56:09;16.37;;;9.60;;
10565;SDS011;5331;48.148;16.326;2024-02-21T20:58:37;13.27;;;8.83;;
10565;SDS011;5331;48.148;16.326;2024-02-21T21:01:07;13.70;;;9.27;;
10565;SDS011;5331;48.148;16.326;2024-02-21T21:03:33;17.17;;;10.43;;
10565;SDS011;5331;48.148;16.326;2024-02-21T21:05:59;18.43;;;11.63;;
10565;SDS011;5331;48.148;16.326;2024-02-21T21:08:26;16.80;;;10.87;;
10565;SDS011;5331;48.148;16.326;2024-02-21T21:10:52;15.77;;;10.87;;
10565;SDS011;5331;48.148;16.326;2024-02-21T21:13:23;18.20;;;11.60;;
10565;SDS011;5331;48.148;16.326;2024-02-21T21:31:12;16.80;;;12.03;;
10565;SDS011;5331;48.148;16.326;2024-02-21T21:33:39;15.70;;;11.23;;
10565;SDS011;5331;48.148;16.326;2024-02-21T21:36:05;19.23;;;12.00;;
10565;SDS011;5331;48.148;16.326;2024-02-21T21:38:32;18.23;;;12.47;;
10565;SDS011;5331;48.148;16.326;2024-02-21T21:40:59;16.07;;;11.97;;
10565;SDS011;5331;48.148;16.326;2024-02-21T21:43:25;18.70;;;11.90;;
10565;SDS011;5331;48.148;16.326;2024-02-21T21:45:53;15.90;;;11.80;;
10565;SDS011;5331;48.148;16.326;2024-02-21T22:05:53;12.33;;;10.13;;
10565;SDS011;5331;48.148;16.326;2024-02-21T22:08:19;15.03;;;10.57;;
10565;SDS011;5331;48.148;16.326;2024-02-21T22:10:46;13.33;;;9.00;;
10565;SDS011;5331;48.148;16.326;2024-02-21T22:13:14;11.47;;;8.80;;
10565;SDS011;5331;48.148;16.326;2024-02-21T22:15:40;10.43;;;7.93;;
10565;SDS011;5331;48.148;16.326;2024-02-21T22:18:07;13.73;;;9.67;;
10565;SDS011;5331;48.148;16.326;2024-02-21T22:20:34;13.27;;;9.17;;
10565;SDS011;5331;48.148;16.326;2024-02-21T22:23:02;12.60;;;9.17;;
10565;SDS011;5331;48.148;16.326;2024-02-21T22:43:20;15.20;;;8.90;;
10565;SDS011;5331;48.148;16.326;2024-02-21T22:45:46;14.80;;;9.00;;
10565;SDS011;5331;48.148;16.326;2024-02-21T22:48:14;12.10;;;8.67;;
10565;SDS011;5331;48.148;16.326;2024-02-21T22:50:41;12.50;;;8.40;;
10565;SDS011;5331;48.148;16.326;2024-02-21T22:53:07;14.23;;;9.20;;
10565;SDS011;5331;48.148;16.326;2024-02-21T22:55:33;12.43;;;8.93;;
10565;SDS011;5331;48.148;16.326;2024-02-21T22:57:59;12.50;;;8.77;;
10565;SDS011;5331;48.148;16.326;2024-02-21T23:00:26;14.33;;;9.37;;
10565;SDS011;5331;48.148;16.326;2024-02-21T23:18:19;9.97;;;7.27;;
10565;SDS011;5331;48.148;16.326;2024-02-21T23:20:45;12.33;;;8.20;;
10565;SDS011;5331;48.148;16.326;2024-02-21T23:23:13;12.50;;;9.30;;
10565;SDS011;5331;48.148;16.326;2024-02-21T23:25:40;13.03;;;8.53;;
10565;SDS011;5331;48.148;16.326;2024-02-21T23:28:06;12.93;;;8.50;;
10565;SDS011;5331;48.148;16.326;2024-02-21T23:30:32;11.73;;;8.87;;
10565;SDS011;5331;48.148;16.326;2024-02-21T23:32:58;12.63;;;9.10;;
10565;SDS011;5331;48.148;16.326;2024-02-21T23:35:25;11.97;;;8.90;;
10565;SDS011;5331;48.148;16.326;2024-02-21T23:55:45;10.37;;;7.60;;
10565;SDS011;5331;48.148;16.326;2024-02-21T23:58:11;11.53;;;8.63;;
